Friday, January 19, 2018, 2:38 AM EST
Back to Local

KIJD, Willimantic Windham Airport

Location: North Windham, CT, United States Lat: 41.75
Local Time: 2:38 AM EST ( 7:38 GMT) Lon: -72.183
Time Zone: US/Eastern Elev: 246 ft

Show me the last for .
Show Decoded

2018-01-19 01:52 METAR KIJD 190652Z AUTO 00000KT 9SM CLR M09/M12 A2998 RMK AO2 SLP156 T10891122 =
2018-01-19 00:52 METAR KIJD 190552Z AUTO 00000KT 10SM CLR M08/M11 A2998 RMK AO2 SLP156 T10781111
                 11033 21078 58006 =
2018-01-18 23:52 METAR KIJD 190452Z AUTO 00000KT 10SM CLR M06/M11 A3000 RMK AO2 SLP161 T10611106
                 410111100 =
2018-01-18 22:52 METAR KIJD 190352Z AUTO 28006KT 10SM CLR M06/M11 A3001 RMK AO2 SLP164 T10561106
                 =
2018-01-18 21:52 METAR KIJD 190252Z AUTO 27004KT 10SM CLR M06/M11 A3000 RMK AO2 SLP162 T10561106
                 51013 =
2018-01-18 20:52 METAR KIJD 190152Z AUTO 28005KT 10SM CLR M05/M10 A2999 RMK AO2 SLP159 T10501100
                 =
2018-01-18 19:52 METAR KIJD 190052Z AUTO 32005KT 10SM CLR M04/M10 A2997 RMK AO2 SLP153 T10391100
                 =
2018-01-18 18:52 METAR KIJD 182352Z AUTO 33007KT 10SM CLR M03/M10 A2996 RMK AO2 SLP150 T10331100
                 11011 21039 53026 =
2018-01-18 17:52 METAR KIJD 182252Z AUTO 33004KT 10SM CLR M03/M10 A2993 RMK AO2 SLP139 T10331100
                 =
2018-01-18 16:52 METAR KIJD 182152Z AUTO 33007KT 10SM CLR M02/M09 A2991 RMK AO2 SLP130 T10221094
                 =
2018-01-18 15:52 METAR KIJD 182052Z AUTO 34013KT 10SM CLR M02/M09 A2989 RMK AO2 SLP123 T10171094
                 55007 =
2018-01-18 14:52 METAR KIJD 181952Z AUTO 35009KT 10SM CLR M01/M09 A2987 RMK AO2 SLP116 T10111089
                 =
2018-01-18 13:52 METAR KIJD 181852Z AUTO 36009KT 10SM CLR M01/M09 A2988 RMK AO2 SLP122 T10111094
                 =
2018-01-18 12:52 METAR KIJD 181752Z AUTO 33013KT 10SM CLR M02/M10 A2991 RMK AO2 SLP130 T10171100
                 11017 21100 58027 =
2018-01-18 11:52 METAR KIJD 181652Z AUTO 34006KT 10SM CLR M02/M10 A2995 RMK AO2 SLP143 T10171100
                 =
2018-01-18 10:52 METAR KIJD 181552Z AUTO 33010KT 10SM CLR M03/M11 A2998 RMK AO2 SLP156 T10281106
                 =
2018-01-18 09:52 METAR KIJD 181452Z AUTO 34010KT 10SM CLR M04/M11 A2999 RMK AO2 SLP158 T10391111
                 55001 =
2018-01-18 08:52 METAR KIJD 181352Z AUTO 00000KT 10SM CLR M07/M11 A2998 RMK AO2 SLP156 T10671111
                 =
2018-01-18 07:52 METAR KIJD 181252Z AUTO 27004KT 10SM CLR M08/M12 A2999 RMK AO2 SLP160 T10831122
                 =
2018-01-18 06:52 METAR KIJD 181152Z AUTO 00000KT 10SM CLR M10/M12 A2999 RMK AO2 SLP160 70010
                 T11001122 11056 21100 56012 =
2018-01-18 05:52 METAR KIJD 181052Z AUTO 06004KT 10SM CLR M08/M13 A3000 RMK AO2 SLP162 T10831128
                 =
2018-01-18 04:52 METAR KIJD 180952Z AUTO 36003KT 10SM CLR M08/M12 A2999 RMK AO2 SLP160 T10831122
                 =
2018-01-18 03:52 METAR KIJD 180852Z AUTO 06003KT 10SM CLR M08/M12 A3003 RMK AO2 SLP172 T10831117
                 58007 =
2018-01-18 02:52 METAR KIJD 180752Z AUTO 34006KT 10SM CLR M08/M12 A3005 RMK AO2 SLP180 T10781117
                 =

Support USWX by starting your Amazon purchase here.